sensor_id;sensor_type;location;lat;lon;timestamp;pressure;altitude;pressure_sealevel;temperature;humidity
74334;BME280;62753;40.394;-80.022;2024-02-23T00:00:21;95972.99;;;14.80;41.97
74334;BME280;62753;40.394;-80.022;2024-02-23T00:02:47;95966.63;;;15.73;41.01
74334;BME280;62753;40.394;-80.022;2024-02-23T00:05:12;95959.06;;;15.46;41.22
74334;BME280;62753;40.394;-80.022;2024-02-23T00:07:36;95955.88;;;16.42;40.18
74334;BME280;62753;40.394;-80.022;2024-02-23T00:10:05;95951.67;;;13.83;44.54
74334;BME280;62753;40.394;-80.022;2024-02-23T00:12:27;95952.57;;;14.59;43.94
74334;BME280;62753;40.394;-80.022;2024-02-23T00:14:53;95955.03;;;16.41;39.99
74334;BME280;62753;40.394;-80.022;2024-02-23T00:17:18;95960.09;;;15.93;41.01
74334;BME280;62753;40.394;-80.022;2024-02-23T00:19:47;95958.32;;;14.98;43.21
74334;BME280;62753;40.394;-80.022;2024-02-23T00:22:11;95959.11;;;13.57;44.66
74334;BME280;62753;40.394;-80.022;2024-02-23T00:24:35;95960.21;;;15.49;41.99
74334;BME280;62753;40.394;-80.022;2024-02-23T00:27:00;95957.23;;;14.94;42.61
74334;BME280;62753;40.394;-80.022;2024-02-23T00:29:27;95958.62;;;13.36;45.09
74334;BME280;62753;40.394;-80.022;2024-02-23T00:31:52;95962.73;;;13.06;45.69
74334;BME280;62753;40.394;-80.022;2024-02-23T00:34:17;95958.98;;;15.58;41.93
74334;BME280;62753;40.394;-80.022;2024-02-23T00:36:42;95952.79;;;15.80;40.77
74334;BME280;62753;40.394;-80.022;2024-02-23T00:39:08;95952.20;;;12.45;46.76
74334;BME280;62753;40.394;-80.022;2024-02-23T00:41:36;95952.86;;;12.43;47.57
74334;BME280;62753;40.394;-80.022;2024-02-23T00:43:59;95951.70;;;14.41;44.30
74334;BME280;62753;40.394;-80.022;2024-02-23T00:46:27;95952.26;;;16.67;40.26
74334;BME280;62753;40.394;-80.022;2024-02-23T00:48:51;95952.28;;;13.30;46.19
74334;BME280;62753;40.394;-80.022;2024-02-23T00:51:15;95954.98;;;13.23;45.49
74334;BME280;62753;40.394;-80.022;2024-02-23T00:53:41;95954.34;;;13.23;45.95
74334;BME280;62753;40.394;-80.022;2024-02-23T00:56:09;95952.89;;;13.02;46.06
74334;BME280;62753;40.394;-80.022;2024-02-23T00:58:32;95947.81;;;13.43;45.95
74334;BME280;62753;40.394;-80.022;2024-02-23T01:00:57;95948.80;;;15.20;43.64
74334;BME280;62753;40.394;-80.022;2024-02-23T01:03:26;95950.97;;;15.34;42.30
74334;BME280;62753;40.394;-80.022;2024-02-23T01:05:48;95945.96;;;13.33;45.73
74334;BME280;62753;40.394;-80.022;2024-02-23T01:08:14;95947.66;;;14.48;44.21
74334;BME280;62753;40.394;-80.022;2024-02-23T01:10:40;95941.24;;;13.93;44.80
74334;BME280;62753;40.394;-80.022;2024-02-23T01:13:07;95939.39;;;12.63;48.65
74334;BME280;62753;40.394;-80.022;2024-02-23T01:15:32;95932.58;;;15.84;42.91
74334;BME280;62753;40.394;-80.022;2024-02-23T01:17:56;95931.98;;;14.79;42.68
74334;BME280;62753;40.394;-80.022;2024-02-23T01:20:22;95931.82;;;15.53;42.01
74334;BME280;62753;40.394;-80.022;2024-02-23T01:22:48;95931.62;;;14.95;43.04
74334;BME280;62753;40.394;-80.022;2024-02-23T01:25:13;95922.16;;;13.37;45.67
74334;BME280;62753;40.394;-80.022;2024-02-23T01:27:40;95924.21;;;15.14;43.44
74334;BME280;62753;40.394;-80.022;2024-02-23T01:30:06;95926.27;;;15.29;43.19
74334;BME280;62753;40.394;-80.022;2024-02-23T01:32:33;95927.22;;;14.75;43.32
74334;BME280;62753;40.394;-80.022;2024-02-23T01:34:55;95926.41;;;14.85;44.13
74334;BME280;62753;40.394;-80.022;2024-02-23T01:37:20;95927.94;;;13.25;46.85
74334;BME280;62753;40.394;-80.022;2024-02-23T01:39:46;95929.68;;;13.25;46.66
74334;BME280;62753;40.394;-80.022;2024-02-23T01:42:12;95928.84;;;14.10;45.58
74334;BME280;62753;40.394;-80.022;2024-02-23T01:44:36;95926.73;;;14.21;44.94
74334;BME280;62753;40.394;-80.022;2024-02-23T01:47:01;95917.05;;;14.57;44.29
74334;BME280;62753;40.394;-80.022;2024-02-23T01:49:27;95917.49;;;15.38;42.40
74334;BME280;62753;40.394;-80.022;2024-02-23T01:51:53;95920.98;;;15.28;43.56
74334;BME280;62753;40.394;-80.022;2024-02-23T01:54:17;95925.92;;;14.63;43.58
74334;BME280;62753;40.394;-80.022;2024-02-23T01:56:46;95931.56;;;14.59;44.10
74334;BME280;62753;40.394;-80.022;2024-02-23T01:59:10;95933.81;;;13.81;45.44
74334;BME280;62753;40.394;-80.022;2024-02-23T02:01:34;95933.49;;;13.58;46.03
74334;BME280;62753;40.394;-80.022;2024-02-23T02:03:59;95932.36;;;13.56;45.59
74334;BME280;62753;40.394;-80.022;2024-02-23T02:06:24;95931.94;;;14.15;45.40
74334;BME280;62753;40.394;-80.022;2024-02-23T02:08:52;95933.60;;;13.08;45.60
74334;BME280;62753;40.394;-80.022;2024-02-23T02:11:17;95935.79;;;13.11;47.00
74334;BME280;62753;40.394;-80.022;2024-02-23T02:13:41;95934.86;;;13.93;45.49
74334;BME280;62753;40.394;-80.022;2024-02-23T02:16:07;95929.23;;;13.45;46.44
74334;BME280;62753;40.394;-80.022;2024-02-23T02:18:33;95924.74;;;13.61;45.94
74334;BME280;62753;40.394;-80.022;2024-02-23T02:20:59;95923.28;;;14.45;43.54
74334;BME280;62753;40.394;-80.022;2024-02-23T02:23:26;95923.29;;;14.65;44.37
74334;BME280;62753;40.394;-80.022;2024-02-23T02:25:53;95921.76;;;14.31;45.29
74334;BME280;62753;40.394;-80.022;2024-02-23T02:28:16;95918.51;;;14.80;43.32
74334;BME280;62753;40.394;-80.022;2024-02-23T02:30:40;95918.38;;;14.94;43.42
74334;BME280;62753;40.394;-80.022;2024-02-23T02:33:05;95920.49;;;14.91;44.03
74334;BME280;62753;40.394;-80.022;2024-02-23T02:35:34;95917.17;;;14.19;44.15
74334;BME280;62753;40.394;-80.022;2024-02-23T02:37:57;95915.50;;;14.14;44.84
74334;BME280;62753;40.394;-80.022;2024-02-23T02:40:23;95914.16;;;13.95;45.23
74334;BME280;62753;40.394;-80.022;2024-02-23T02:42:48;95909.02;;;13.92;45.79
74334;BME280;62753;40.394;-80.022;2024-02-23T02:45:14;95902.49;;;13.44;45.47
74334;BME280;62753;40.394;-80.022;2024-02-23T02:47:39;95896.53;;;13.91;45.14
74334;BME280;62753;40.394;-80.022;2024-02-23T02:50:06;95892.33;;;14.60;44.08
74334;BME280;62753;40.394;-80.022;2024-02-23T02:52:30;95885.39;;;14.38;44.90
74334;BME280;62753;40.394;-80.022;2024-02-23T02:54:56;95886.78;;;14.51;44.51
74334;BME280;62753;40.394;-80.022;2024-02-23T02:57:21;95883.60;;;14.61;43.95
74334;BME280;62753;40.394;-80.022;2024-02-23T02:59:46;95878.06;;;14.26;44.49
74334;BME280;62753;40.394;-80.022;2024-02-23T03:02:11;95880.44;;;13.61;45.76
74334;BME280;62753;40.394;-80.022;2024-02-23T03:04:39;95881.82;;;14.13;44.83
74334;BME280;62753;40.394;-80.022;2024-02-23T03:07:03;95880.60;;;14.62;44.77
74334;BME280;62753;40.394;-80.022;2024-02-23T03:09:31;95874.57;;;13.77;45.60
74334;BME280;62753;40.394;-80.022;2024-02-23T03:11:55;95879.55;;;13.38;46.72
74334;BME280;62753;40.394;-80.022;2024-02-23T03:14:22;95881.47;;;13.82;46.28
74334;BME280;62753;40.394;-80.022;2024-02-23T03:16:45;95877.00;;;13.27;47.23
74334;BME280;62753;40.394;-80.022;2024-02-23T03:19:10;95874.31;;;13.66;45.92
74334;BME280;62753;40.394;-80.022;2024-02-23T03:21:36;95872.96;;;14.41;44.64
74334;BME280;62753;40.394;-80.022;2024-02-23T03:24:06;95873.74;;;13.74;45.33
74334;BME280;62753;40.394;-80.022;2024-02-23T03:26:29;95870.82;;;13.94;45.47
74334;BME280;62753;40.394;-80.022;2024-02-23T03:28:53;95863.57;;;14.11;45.85
74334;BME280;62753;40.394;-80.022;2024-02-23T03:31:20;95855.42;;;14.03;45.71
74334;BME280;62753;40.394;-80.022;2024-02-23T03:33:46;95854.64;;;13.31;46.82
74334;BME280;62753;40.394;-80.022;2024-02-23T03:36:11;95857.17;;;13.03;47.34
74334;BME280;62753;40.394;-80.022;2024-02-23T03:38:34;95849.68;;;13.62;46.26
74334;BME280;62753;40.394;-80.022;2024-02-23T03:41:01;95850.60;;;13.47;46.47
74334;BME280;62753;40.394;-80.022;2024-02-23T03:43:27;95856.19;;;13.58;46.28
74334;BME280;62753;40.394;-80.022;2024-02-23T03:45:51;95856.50;;;13.76;45.13
74334;BME280;62753;40.394;-80.022;2024-02-23T03:48:17;95863.63;;;12.97;46.57
74334;BME280;62753;40.394;-80.022;2024-02-23T03:50:42;95861.15;;;14.22;45.81
74334;BME280;62753;40.394;-80.022;2024-02-23T03:53:10;95852.65;;;13.92;44.54
74334;BME280;62753;40.394;-80.022;2024-02-23T03:55:34;95849.35;;;14.12;44.15
74334;BME280;62753;40.394;-80.022;2024-02-23T03:58:01;95852.41;;;12.98;46.95
74334;BME280;62753;40.394;-80.022;2024-02-23T04:00:24;95854.97;;;14.09;45.53
74334;BME280;62753;40.394;-80.022;2024-02-23T04:02:51;95849.73;;;13.48;45.58
74334;BME280;62753;40.394;-80.022;2024-02-23T04:05:16;95847.37;;;13.86;45.28
74334;BME280;62753;40.394;-80.022;2024-02-23T04:07:40;95858.11;;;14.38;43.68
74334;BME280;62753;40.394;-80.022;2024-02-23T04:10:08;95853.14;;;12.20;46.91
74334;BME280;62753;40.394;-80.022;2024-02-23T04:12:34;95848.86;;;13.49;45.10
74334;BME280;62753;40.394;-80.022;2024-02-23T04:14:56;95841.34;;;13.69;44.78
74334;BME280;62753;40.394;-80.022;2024-02-23T04:17:23;95837.22;;;13.53;44.67
74334;BME280;62753;40.394;-80.022;2024-02-23T04:19:48;95835.67;;;14.28;43.68
74334;BME280;62753;40.394;-80.022;2024-02-23T04:22:16;95840.40;;;14.07;44.00
74334;BME280;62753;40.394;-80.022;2024-02-23T04:24:39;95842.38;;;13.87;45.14
74334;BME280;62753;40.394;-80.022;2024-02-23T04:27:04;95841.59;;;13.81;45.14
74334;BME280;62753;40.394;-80.022;2024-02-23T04:29:29;95842.66;;;13.22;45.99
74334;BME280;62753;40.394;-80.022;2024-02-23T04:31:54;95838.21;;;13.71;45.06
74334;BME280;62753;40.394;-80.022;2024-02-23T04:34:24;95836.40;;;14.03;44.25
74334;BME280;62753;40.394;-80.022;2024-02-23T04:36:50;95837.91;;;12.98;45.78
74334;BME280;62753;40.394;-80.022;2024-02-23T04:39:10;95835.34;;;13.60;45.25
74334;BME280;62753;40.394;-80.022;2024-02-23T04:41:35;95828.88;;;13.56;44.97
74334;BME280;62753;40.394;-80.022;2024-02-23T04:44:01;95821.14;;;13.82;44.88
74334;BME280;62753;40.394;-80.022;2024-02-23T04:46:27;95814.93;;;13.12;45.62
74334;BME280;62753;40.394;-80.022;2024-02-23T04:48:51;95814.80;;;14.77;42.71
74334;BME280;62753;40.394;-80.022;2024-02-23T04:51:17;95810.88;;;13.98;43.34
74334;BME280;62753;40.394;-80.022;2024-02-23T04:53:44;95810.23;;;13.88;44.38
74334;BME280;62753;40.394;-80.022;2024-02-23T04:56:10;95804.41;;;13.68;44.68
74334;BME280;62753;40.394;-80.022;2024-02-23T04:58:34;95803.72;;;13.88;44.00
74334;BME280;62753;40.394;-80.022;2024-02-23T05:01:01;95801.36;;;13.01;45.82
74334;BME280;62753;40.394;-80.022;2024-02-23T05:03:24;95802.68;;;13.85;44.80
74334;BME280;62753;40.394;-80.022;2024-02-23T05:05:49;95811.02;;;13.71;44.58
74334;BME280;62753;40.394;-80.022;2024-02-23T05:08:15;95816.68;;;13.16;45.37
74334;BME280;62753;40.394;-80.022;2024-02-23T05:10:40;95813.42;;;13.55;44.75
74334;BME280;62753;40.394;-80.022;2024-02-23T05:13:05;95811.71;;;13.04;46.01
74334;BME280;62753;40.394;-80.022;2024-02-23T05:15:31;95815.99;;;13.81;45.27
74334;BME280;62753;40.394;-80.022;2024-02-23T05:17:57;95815.44;;;13.41;45.35
74334;BME280;62753;40.394;-80.022;2024-02-23T05:20:22;95820.81;;;13.22;45.13
74334;BME280;62753;40.394;-80.022;2024-02-23T05:22:48;95823.03;;;12.84;45.49
74334;BME280;62753;40.394;-80.022;2024-02-23T05:25:15;95820.91;;;13.87;43.93
74334;BME280;62753;40.394;-80.022;2024-02-23T05:27:39;95822.25;;;13.74;44.36
74334;BME280;62753;40.394;-80.022;2024-02-23T05:30:08;95820.02;;;12.94;46.21
74334;BME280;62753;40.394;-80.022;2024-02-23T05:32:32;95818.57;;;13.22;45.27
74334;BME280;62753;40.394;-80.022;2024-02-23T05:34:58;95818.01;;;13.19;44.99
74334;BME280;62753;40.394;-80.022;2024-02-23T05:37:21;95824.12;;;13.41;44.60
74334;BME280;62753;40.394;-80.022;2024-02-23T05:39:51;95825.77;;;13.46;44.23
74334;BME280;62753;40.394;-80.022;2024-02-23T05:42:11;95825.54;;;13.00;44.82
74334;BME280;62753;40.394;-80.022;2024-02-23T05:44:38;95829.57;;;13.09;45.39
74334;BME280;62753;40.394;-80.022;2024-02-23T05:47:02;95831.00;;;13.93;43.27
74334;BME280;62753;40.394;-80.022;2024-02-23T05:49:27;95834.25;;;14.10;42.22
74334;BME280;62753;40.394;-80.022;2024-02-23T05:51:55;95831.27;;;13.03;44.46
74334;BME280;62753;40.394;-80.022;2024-02-23T05:54:21;95823.96;;;12.85;44.74
74334;BME280;62753;40.394;-80.022;2024-02-23T05:56:45;95817.66;;;13.21;44.12
74334;BME280;62753;40.394;-80.022;2024-02-23T05:59:11;95820.83;;;11.57;46.42
74334;BME280;62753;40.394;-80.022;2024-02-23T06:01:35;95822.03;;;12.80;44.65
74334;BME280;62753;40.394;-80.022;2024-02-23T06:04:01;95824.15;;;13.18;43.82
74334;BME280;62753;40.394;-80.022;2024-02-23T06:06:29;95823.48;;;13.58;44.02
74334;BME280;62753;40.394;-80.022;2024-02-23T06:08:51;95826.37;;;13.85;42.93
74334;BME280;62753;40.394;-80.022;2024-02-23T06:11:17;95829.05;;;14.15;42.51
74334;BME280;62753;40.394;-80.022;2024-02-23T06:13:41;95831.47;;;13.04;44.34
74334;BME280;62753;40.394;-80.022;2024-02-23T06:16:11;95828.88;;;14.33;42.28
74334;BME280;62753;40.394;-80.022;2024-02-23T06:18:34;95822.24;;;14.06;42.81
74334;BME280;62753;40.394;-80.022;2024-02-23T06:20:58;95825.56;;;13.37;44.53
74334;BME280;62753;40.394;-80.022;2024-02-23T06:23:25;95824.35;;;13.47;43.72
74334;BME280;62753;40.394;-80.022;2024-02-23T06:25:49;95826.52;;;13.40;43.71
74334;BME280;62753;40.394;-80.022;2024-02-23T06:28:14;95826.68;;;14.19;42.54
74334;BME280;62753;40.394;-80.022;2024-02-23T06:30:42;95832.17;;;13.47;43.59
74334;BME280;62753;40.394;-80.022;2024-02-23T06:33:06;95834.28;;;12.34;44.43
74334;BME280;62753;40.394;-80.022;2024-02-23T06:35:32;95837.15;;;14.03;42.68
74334;BME280;62753;40.394;-80.022;2024-02-23T06:37:57;95838.66;;;14.32;41.42
74334;BME280;62753;40.394;-80.022;2024-02-23T06:40:22;95843.89;;;12.91;44.14
74334;BME280;62753;40.394;-80.022;2024-02-23T06:42:52;95839.21;;;13.11;44.35
74334;BME280;62753;40.394;-80.022;2024-02-23T06:45:15;95831.93;;;13.77;42.65
74334;BME280;62753;40.394;-80.022;2024-02-23T06:47:41;95824.88;;;13.78;43.34
74334;BME280;62753;40.394;-80.022;2024-02-23T06:50:08;95822.43;;;13.23;43.92
74334;BME280;62753;40.394;-80.022;2024-02-23T06:52:33;95812.70;;;13.40;42.79
74334;BME280;62753;40.394;-80.022;2024-02-23T06:54:56;95809.77;;;13.15;44.87
74334;BME280;62753;40.394;-80.022;2024-02-23T06:57:24;95806.30;;;12.77;44.30
74334;BME280;62753;40.394;-80.022;2024-02-23T06:59:47;95802.98;;;13.74;43.12
74334;BME280;62753;40.394;-80.022;2024-02-23T07:02:13;95800.08;;;13.52;43.77
74334;BME280;62753;40.394;-80.022;2024-02-23T07:04:39;95796.69;;;12.75;45.85
74334;BME280;62753;40.394;-80.022;2024-02-23T07:07:03;95801.49;;;12.45;46.61
74334;BME280;62753;40.394;-80.022;2024-02-23T07:09:29;95799.04;;;13.25;44.83
74334;BME280;62753;40.394;-80.022;2024-02-23T07:11:54;95803.27;;;13.06;45.66
74334;BME280;62753;40.394;-80.022;2024-02-23T07:14:22;95805.06;;;13.48;44.01
74334;BME280;62753;40.394;-80.022;2024-02-23T07:16:47;95801.65;;;12.88;45.09
74334;BME280;62753;40.394;-80.022;2024-02-23T07:19:19;95801.76;;;11.84;46.57
74334;BME280;62753;40.394;-80.022;2024-02-23T07:21:37;95798.83;;;13.27;44.08
74334;BME280;62753;40.394;-80.022;2024-02-23T07:24:05;95799.14;;;12.88;44.44
74334;BME280;62753;40.394;-80.022;2024-02-23T07:26:29;95796.36;;;13.23;44.43
74334;BME280;62753;40.394;-80.022;2024-02-23T07:28:53;95800.39;;;12.94;45.20
74334;BME280;62753;40.394;-80.022;2024-02-23T07:31:20;95792.63;;;12.92;44.42
74334;BME280;62753;40.394;-80.022;2024-02-23T07:33:44;95786.77;;;13.23;44.46
74334;BME280;62753;40.394;-80.022;2024-02-23T07:36:14;95784.61;;;12.99;44.83
74334;BME280;62753;40.394;-80.022;2024-02-23T07:38:35;95786.25;;;13.40;44.51
74334;BME280;62753;40.394;-80.022;2024-02-23T07:41:01;95786.42;;;13.45;44.63
74334;BME280;62753;40.394;-80.022;2024-02-23T07:43:27;95791.87;;;12.34;45.21
74334;BME280;62753;40.394;-80.022;2024-02-23T07:45:51;95793.03;;;12.63;45.37
74334;BME280;62753;40.394;-80.022;2024-02-23T07:48:17;95790.69;;;12.36;46.05
74334;BME280;62753;40.394;-80.022;2024-02-23T07:50:44;95800.41;;;12.84;45.15
74334;BME280;62753;40.394;-80.022;2024-02-23T07:53:07;95810.87;;;12.20;45.79
74334;BME280;62753;40.394;-80.022;2024-02-23T07:55:32;95813.13;;;12.67;45.47
74334;BME280;62753;40.394;-80.022;2024-02-23T07:57:57;95813.95;;;13.01;44.52
74334;BME280;62753;40.394;-80.022;2024-02-23T08:00:25;95807.79;;;12.62;45.05
74334;BME280;62753;40.394;-80.022;2024-02-23T08:02:48;95804.41;;;12.80;44.40
74334;BME280;62753;40.394;-80.022;2024-02-23T08:05:15;95797.71;;;12.11;45.88
74334;BME280;62753;40.394;-80.022;2024-02-23T08:07:44;95799.26;;;12.37;45.43
74334;BME280;62753;40.394;-80.022;2024-02-23T08:10:06;95798.89;;;12.76;44.92
74334;BME280;62753;40.394;-80.022;2024-02-23T08:12:31;95796.37;;;13.14;44.49
74334;BME280;62753;40.394;-80.022;2024-02-23T08:14:56;95798.66;;;12.65;44.79
74334;BME280;62753;40.394;-80.022;2024-02-23T08:17:22;95805.99;;;12.21;45.58
74334;BME280;62753;40.394;-80.022;2024-02-23T08:19:48;95807.67;;;12.26;44.94
74334;BME280;62753;40.394;-80.022;2024-02-23T08:22:12;95810.67;;;12.32;45.63
74334;BME280;62753;40.394;-80.022;2024-02-23T08:24:38;95811.30;;;12.74;44.24
74334;BME280;62753;40.394;-80.022;2024-02-23T08:27:05;95806.49;;;12.95;44.10
74334;BME280;62753;40.394;-80.022;2024-02-23T08:29:29;95803.54;;;12.94;43.55
74334;BME280;62753;40.394;-80.022;2024-02-23T08:31:54;95796.62;;;13.34;43.31
74334;BME280;62753;40.394;-80.022;2024-02-23T08:34:20;95793.80;;;13.48;42.28
74334;BME280;62753;40.394;-80.022;2024-02-23T08:36:45;95788.63;;;13.06;42.97
74334;BME280;62753;40.394;-80.022;2024-02-23T08:39:11;95779.55;;;12.79;44.30
74334;BME280;62753;40.394;-80.022;2024-02-23T08:41:36;95775.30;;;12.51;44.83
74334;BME280;62753;40.394;-80.022;2024-02-23T08:44:03;95773.01;;;12.97;43.32
74334;BME280;62753;40.394;-80.022;2024-02-23T08:46:27;95774.48;;;12.59;44.05
74334;BME280;62753;40.394;-80.022;2024-02-23T08:48:52;95773.48;;;12.58;44.06
74334;BME280;62753;40.394;-80.022;2024-02-23T08:51:18;95776.64;;;12.50;44.72
74334;BME280;62753;40.394;-80.022;2024-02-23T08:53:45;95771.36;;;12.75;43.98
74334;BME280;62753;40.394;-80.022;2024-02-23T08:56:12;95769.23;;;13.08;43.80
74334;BME280;62753;40.394;-80.022;2024-02-23T08:58:34;95765.84;;;12.71;44.58
74334;BME280;62753;40.394;-80.022;2024-02-23T09:01:01;95765.87;;;12.24;45.77
74334;BME280;62753;40.394;-80.022;2024-02-23T09:03:26;95763.47;;;12.06;45.61
74334;BME280;62753;40.394;-80.022;2024-02-23T09:05:53;95765.43;;;11.78;45.89
74334;BME280;62753;40.394;-80.022;2024-02-23T09:08:16;95761.24;;;11.79;46.82
74334;BME280;62753;40.394;-80.022;2024-02-23T09:10:42;95756.03;;;11.41;47.25
74334;BME280;62753;40.394;-80.022;2024-02-23T09:13:07;95756.95;;;11.67;46.92
74334;BME280;62753;40.394;-80.022;2024-02-23T09:15:32;95760.21;;;11.54;46.78
74334;BME280;62753;40.394;-80.022;2024-02-23T09:17:57;95761.23;;;11.53;48.08
74334;BME280;62753;40.394;-80.022;2024-02-23T09:20:23;95760.68;;;10.96;49.08
74334;BME280;62753;40.394;-80.022;2024-02-23T09:22:48;95764.28;;;11.45;48.50
74334;BME280;62753;40.394;-80.022;2024-02-23T09:25:14;95762.63;;;11.76;47.90
74334;BME280;62753;40.394;-80.022;2024-02-23T09:27:40;95765.54;;;11.88;46.59
74334;BME280;62753;40.394;-80.022;2024-02-23T09:30:09;95763.29;;;11.66;46.73
74334;BME280;62753;40.394;-80.022;2024-02-23T09:32:31;95763.07;;;11.88;46.44
74334;BME280;62753;40.394;-80.022;2024-02-23T09:34:57;95767.84;;;12.62;45.65
74334;BME280;62753;40.394;-80.022;2024-02-23T09:37:22;95767.73;;;12.56;44.75
74334;BME280;62753;40.394;-80.022;2024-02-23T09:39:48;95769.02;;;11.80;46.29
74334;BME280;62753;40.394;-80.022;2024-02-23T09:42:14;95771.14;;;12.50;45.54
74334;BME280;62753;40.394;-80.022;2024-02-23T09:44:39;95772.56;;;12.63;44.88
74334;BME280;62753;40.394;-80.022;2024-02-23T09:47:08;95774.59;;;12.05;46.18
74334;BME280;62753;40.394;-80.022;2024-02-23T09:49:29;95780.74;;;12.40;45.52
74334;BME280;62753;40.394;-80.022;2024-02-23T09:51:55;95787.57;;;12.61;45.71
74334;BME280;62753;40.394;-80.022;2024-02-23T09:54:21;95793.20;;;12.58;45.76
74334;BME280;62753;40.394;-80.022;2024-02-23T09:56:47;95797.33;;;12.46;45.27
74334;BME280;62753;40.394;-80.022;2024-02-23T09:59:16;95797.95;;;12.36;45.84
74334;BME280;62753;40.394;-80.022;2024-02-23T10:01:38;95794.95;;;12.47;45.03
74334;BME280;62753;40.394;-80.022;2024-02-23T10:04:05;95790.36;;;12.18;45.79
74334;BME280;62753;40.394;-80.022;2024-02-23T10:06:28;95786.64;;;12.21;46.12
74334;BME280;62753;40.394;-80.022;2024-02-23T10:08:54;95784.14;;;12.35;45.73
74334;BME280;62753;40.394;-80.022;2024-02-23T10:11:21;95786.08;;;12.11;45.37
74334;BME280;62753;40.394;-80.022;2024-02-23T10:13:49;95784.86;;;13.02;44.03
74334;BME280;62753;40.394;-80.022;2024-02-23T10:16:11;95790.48;;;12.09;45.45
74334;BME280;62753;40.394;-80.022;2024-02-23T10:18:38;95794.27;;;12.33;45.87
74334;BME280;62753;40.394;-80.022;2024-02-23T10:21:01;95796.75;;;11.30;47.42
74334;BME280;62753;40.394;-80.022;2024-02-23T10:23:33;95801.66;;;11.95;45.87
74334;BME280;62753;40.394;-80.022;2024-02-23T10:25:54;95800.25;;;12.22;45.35
74334;BME280;62753;40.394;-80.022;2024-02-23T10:28:18;95796.65;;;11.65;46.54
74334;BME280;62753;40.394;-80.022;2024-02-23T10:30:44;95795.61;;;12.45;45.62
74334;BME280;62753;40.394;-80.022;2024-02-23T10:33:10;95792.57;;;11.92;45.39
74334;BME280;62753;40.394;-80.022;2024-02-23T10:35:36;95790.85;;;12.33;44.99
74334;BME280;62753;40.394;-80.022;2024-02-23T10:38:02;95791.93;;;11.81;46.25
74334;BME280;62753;40.394;-80.022;2024-02-23T10:40:27;95796.49;;;11.81;45.96
74334;BME280;62753;40.394;-80.022;2024-02-23T10:42:51;95801.61;;;12.18;45.05
74334;BME280;62753;40.394;-80.022;2024-02-23T10:45:17;95803.72;;;11.17;46.04
74334;BME280;62753;40.394;-80.022;2024-02-23T10:47:44;95804.05;;;11.70;45.13
74334;BME280;62753;40.394;-80.022;2024-02-23T10:50:08;95803.17;;;12.62;43.78
74334;BME280;62753;40.394;-80.022;2024-02-23T10:52:35;95803.95;;;12.57;43.61
74334;BME280;62753;40.394;-80.022;2024-02-23T10:54:58;95812.59;;;12.89;43.69
74334;BME280;62753;40.394;-80.022;2024-02-23T10:57:23;95813.24;;;12.20;45.09
74334;BME280;62753;40.394;-80.022;2024-02-23T10:59:51;95813.73;;;12.51;44.09
74334;BME280;62753;40.394;-80.022;2024-02-23T11:02:17;95815.21;;;12.58;43.87
74334;BME280;62753;40.394;-80.022;2024-02-23T11:04:45;95815.04;;;11.80;45.26
74334;BME280;62753;40.394;-80.022;2024-02-23T11:07:13;95820.99;;;10.99;47.12
74334;BME280;62753;40.394;-80.022;2024-02-23T11:09:32;95821.24;;;12.32;44.28
74334;BME280;62753;40.394;-80.022;2024-02-23T11:11:58;95825.04;;;11.71;44.33
74334;BME280;62753;40.394;-80.022;2024-02-23T11:14:35;95828.83;;;13.87;41.83
74334;BME280;62753;40.394;-80.022;2024-02-23T11:16:52;95823.63;;;12.91;42.01
74334;BME280;62753;40.394;-80.022;2024-02-23T11:19:15;95828.45;;;13.02;41.67
74334;BME280;62753;40.394;-80.022;2024-02-23T11:21:41;95829.79;;;13.53;40.97
74334;BME280;62753;40.394;-80.022;2024-02-23T11:24:06;95828.39;;;12.92;41.34
74334;BME280;62753;40.394;-80.022;2024-02-23T11:26:37;95829.09;;;13.21;41.69
74334;BME280;62753;40.394;-80.022;2024-02-23T11:28:56;95829.26;;;12.77;42.19
74334;BME280;62753;40.394;-80.022;2024-02-23T11:31:23;95829.99;;;11.81;44.02
74334;BME280;62753;40.394;-80.022;2024-02-23T11:33:50;95831.67;;;12.59;42.38
74334;BME280;62753;40.394;-80.022;2024-02-23T11:36:12;95829.62;;;13.12;41.46
74334;BME280;62753;40.394;-80.022;2024-02-23T11:38:39;95828.16;;;13.50;41.21
74334;BME280;62753;40.394;-80.022;2024-02-23T11:41:05;95831.91;;;11.63;44.55
74334;BME280;62753;40.394;-80.022;2024-02-23T11:43:29;95830.15;;;11.64;44.20
74334;BME280;62753;40.394;-80.022;2024-02-23T11:45:54;95831.43;;;12.97;42.50
74334;BME280;62753;40.394;-80.022;2024-02-23T11:48:19;95831.68;;;12.68;43.15
74334;BME280;62753;40.394;-80.022;2024-02-23T11:50:47;95832.80;;;12.54;42.70
74334;BME280;62753;40.394;-80.022;2024-02-23T11:53:11;95835.48;;;14.30;40.26
74334;BME280;62753;40.394;-80.022;2024-02-23T11:55:37;95835.12;;;12.39;43.03
74334;BME280;62753;40.394;-80.022;2024-02-23T11:58:01;95835.31;;;13.46;41.56
74334;BME280;62753;40.394;-80.022;2024-02-23T12:00:32;95836.26;;;11.50;43.85
74334;BME280;62753;40.394;-80.022;2024-02-23T12:02:52;95839.95;;;12.17;43.72
74334;BME280;62753;40.394;-80.022;2024-02-23T12:05:18;95840.18;;;12.62;42.25
74334;BME280;62753;40.394;-80.022;2024-02-23T12:07:43;95843.01;;;13.30;40.69
74334;BME280;62753;40.394;-80.022;2024-02-23T12:10:09;95846.35;;;12.37;42.38
74334;BME280;62753;40.394;-80.022;2024-02-23T12:12:35;95847.36;;;11.25;44.34
74334;BME280;62753;40.394;-80.022;2024-02-23T12:15:03;95849.60;;;12.84;42.14
74334;BME280;62753;40.394;-80.022;2024-02-23T12:17:28;95847.06;;;14.08;40.63
74334;BME280;62753;40.394;-80.022;2024-02-23T12:19:51;95848.17;;;13.28;41.14
74334;BME280;62753;40.394;-80.022;2024-02-23T12:22:16;95852.58;;;13.24;41.61
74334;BME280;62753;40.394;-80.022;2024-02-23T12:24:42;95856.62;;;12.46;42.65
74334;BME280;62753;40.394;-80.022;2024-02-23T12:27:09;95854.05;;;13.34;41.10
74334;BME280;62753;40.394;-80.022;2024-02-23T12:29:33;95856.47;;;12.20;42.89